Airfield :
LOGIN :

Register | Disclaimer

   EN    FR    IT 

 










Legend :    VFR   Marginal VFR   IFR   Intensive IFR   Very Intensive IFR
Visi :
Ceiling :
>= 8 km
>= 3000ft
5 to 8 km
1000 to 3000 ft
1500m to 5 km
500 to 1000 ft
800 to 1500m
200 to 500 ft
< 800m
< 200 ft
Symbols :   Thunderstorms  Fog  Heavy snow  Heavy precipitations  Wind > 20 kt
SIGMETs :     Misc.  Thunderstorms  Icing  Turbulence  Mountain Waves  Volcanic Ashes






- Airport Elevation : 157 ft
- IATA code : LIL


LFQQ - Lille Lesquin

CURRENT METAR :
  • 231100Z AUTO 15009KT 9999 3300 NSC 14/09 Q1027 NOSIG

EXPIRED METARs :
  • 231030Z AUTO 16008KT CAVOK 13/09 Q1027 NOSIG
  • 231000Z AUTO 17005KT CAVOK 13/09 Q1027 NOSIG
  • 230930Z AUTO VRB02KT CAVOK 11/10 Q1027 NOSIG
  • 230900Z AUTO 16003KT CAVOK 10/09 Q1027 NOSIG
  • 230830Z AUTO 14003KT CAVOK 09/09 Q1027 NOSIG

TAF TAF LFQQ
Valid from the 23 at 06:00 until the 24 at 12:00 UTC


230500Z 2306/2412 VRB02KT CAVOK
PROB30
TEMPO 2306/2308 0300 FG
PROB30 2405/2408 3000 BR
BECMG 2407/2409 16010KT
ATIS : +33 3 20 16 19 54



MET'MAP, your aeronautical weather chart ! - Copyright ORBIFLY December 2007 - Disclaimer

ORBIFLY MET'MAP TEAM :

Programming & Development : Alexandra Zaïnal
Concept & original design : Baudouin d'Aumeries
Assistance for programming : Marc-Olivier Méhu
Technical & hardware support : Manuel Goepfert

Contact : metmap@orbifly.com




SOURCES & CREDITS :

   NOAA